sensor_id;sensor_type;location;lat;lon;timestamp;P1;durP1;ratioP1;P2;durP2;ratioP2
37131;SDS011;23035;50.032;21.978;2023-01-20T00:02:25;44.80;;;20.73;;
37131;SDS011;23035;50.032;21.978;2023-01-20T00:07:30;43.13;;;20.65;;
37131;SDS011;23035;50.032;21.978;2023-01-20T00:12:36;46.03;;;20.02;;
37131;SDS011;23035;50.032;21.978;2023-01-20T00:17:42;40.33;;;20.65;;
37131;SDS011;23035;50.032;21.978;2023-01-20T00:22:46;50.33;;;24.17;;
37131;SDS011;23035;50.032;21.978;2023-01-20T00:27:51;42.90;;;21.80;;
37131;SDS011;23035;50.032;21.978;2023-01-20T00:32:57;45.35;;;21.50;;
37131;SDS011;23035;50.032;21.978;2023-01-20T00:38:01;49.40;;;24.33;;
37131;SDS011;23035;50.032;21.978;2023-01-20T00:43:06;47.85;;;25.35;;
37131;SDS011;23035;50.032;21.978;2023-01-20T00:48:12;43.60;;;21.50;;
37131;SDS011;23035;50.032;21.978;2023-01-20T00:53:17;45.22;;;23.00;;
37131;SDS011;23035;50.032;21.978;2023-01-20T00:58:22;44.08;;;21.05;;
37131;SDS011;23035;50.032;21.978;2023-01-20T01:03:28;46.83;;;22.52;;
37131;SDS011;23035;50.032;21.978;2023-01-20T01:08:33;49.05;;;23.48;;
37131;SDS011;23035;50.032;21.978;2023-01-20T01:13:38;48.40;;;23.10;;
37131;SDS011;23035;50.032;21.978;2023-01-20T01:18:45;57.37;;;25.80;;
37131;SDS011;23035;50.032;21.978;2023-01-20T01:23:51;53.25;;;25.52;;
37131;SDS011;23035;50.032;21.978;2023-01-20T01:28:56;50.65;;;24.35;;
37131;SDS011;23035;50.032;21.978;2023-01-20T01:34:02;51.72;;;24.10;;
37131;SDS011;23035;50.032;21.978;2023-01-20T01:39:06;50.45;;;25.02;;
37131;SDS011;23035;50.032;21.978;2023-01-20T01:44:11;51.92;;;26.02;;
37131;SDS011;23035;50.032;21.978;2023-01-20T01:49:18;53.42;;;25.38;;
37131;SDS011;23035;50.032;21.978;2023-01-20T01:54:26;48.47;;;24.30;;
37131;SDS011;23035;50.032;21.978;2023-01-20T01:59:34;54.47;;;26.95;;
37131;SDS011;23035;50.032;21.978;2023-01-20T02:04:42;41.08;;;21.50;;
37131;SDS011;23035;50.032;21.978;2023-01-20T02:09:46;48.30;;;23.55;;
37131;SDS011;23035;50.032;21.978;2023-01-20T02:14:51;51.42;;;25.50;;
37131;SDS011;23035;50.032;21.978;2023-01-20T02:20:14;48.65;;;22.88;;
37131;SDS011;23035;50.032;21.978;2023-01-20T02:25:55;52.38;;;23.90;;
37131;SDS011;23035;50.032;21.978;2023-01-20T02:37:09;45.35;;;22.85;;
37131;SDS011;23035;50.032;21.978;2023-01-20T02:42:18;56.65;;;26.33;;
37131;SDS011;23035;50.032;21.978;2023-01-20T02:47:28;44.60;;;22.92;;
37131;SDS011;23035;50.032;21.978;2023-01-20T02:52:38;49.88;;;24.85;;
37131;SDS011;23035;50.032;21.978;2023-01-20T02:57:46;47.22;;;23.50;;
37131;SDS011;23035;50.032;21.978;2023-01-20T03:02:54;48.75;;;25.27;;
37131;SDS011;23035;50.032;21.978;2023-01-20T03:08:04;53.15;;;25.27;;
37131;SDS011;23035;50.032;21.978;2023-01-20T03:13:12;46.00;;;23.40;;
37131;SDS011;23035;50.032;21.978;2023-01-20T03:18:22;44.28;;;23.63;;
37131;SDS011;23035;50.032;21.978;2023-01-20T03:23:30;43.45;;;21.83;;
37131;SDS011;23035;50.032;21.978;2023-01-20T03:28:37;48.78;;;24.25;;
37131;SDS011;23035;50.032;21.978;2023-01-20T03:33:42;38.95;;;20.23;;
37131;SDS011;23035;50.032;21.978;2023-01-20T03:38:50;42.15;;;21.80;;
37131;SDS011;23035;50.032;21.978;2023-01-20T03:43:56;44.95;;;23.13;;
37131;SDS011;23035;50.032;21.978;2023-01-20T03:49:12;43.08;;;21.50;;
37131;SDS011;23035;50.032;21.978;2023-01-20T03:54:25;52.65;;;23.15;;
37131;SDS011;23035;50.032;21.978;2023-01-20T03:59:34;48.25;;;26.08;;
37131;SDS011;23035;50.032;21.978;2023-01-20T04:04:43;46.50;;;25.88;;
37131;SDS011;23035;50.032;21.978;2023-01-20T04:09:52;46.90;;;27.48;;
37131;SDS011;23035;50.032;21.978;2023-01-20T04:15:00;44.55;;;23.92;;
37131;SDS011;23035;50.032;21.978;2023-01-20T04:20:08;41.45;;;20.88;;
37131;SDS011;23035;50.032;21.978;2023-01-20T04:25:19;38.17;;;19.88;;
37131;SDS011;23035;50.032;21.978;2023-01-20T04:30:27;38.85;;;20.35;;
37131;SDS011;23035;50.032;21.978;2023-01-20T04:35:32;40.53;;;22.05;;
37131;SDS011;23035;50.032;21.978;2023-01-20T04:40:38;43.65;;;22.45;;
37131;SDS011;23035;50.032;21.978;2023-01-20T04:45:42;45.30;;;22.02;;
37131;SDS011;23035;50.032;21.978;2023-01-20T04:50:47;43.55;;;22.98;;
37131;SDS011;23035;50.032;21.978;2023-01-20T04:55:53;34.03;;;18.37;;
37131;SDS011;23035;50.032;21.978;2023-01-20T05:01:00;47.42;;;24.63;;
37131;SDS011;23035;50.032;21.978;2023-01-20T05:06:05;43.45;;;24.48;;
37131;SDS011;23035;50.032;21.978;2023-01-20T05:11:11;38.43;;;21.40;;
37131;SDS011;23035;50.032;21.978;2023-01-20T05:21:25;40.65;;;21.25;;
37131;SDS011;23035;50.032;21.978;2023-01-20T05:26:31;47.43;;;22.73;;
37131;SDS011;23035;50.032;21.978;2023-01-20T05:36:45;47.20;;;24.55;;
37131;SDS011;23035;50.032;21.978;2023-01-20T05:41:50;44.17;;;22.65;;
37131;SDS011;23035;50.032;21.978;2023-01-20T05:51:59;46.63;;;23.88;;
37131;SDS011;23035;50.032;21.978;2023-01-20T05:57:05;49.05;;;25.08;;
37131;SDS011;23035;50.032;21.978;2023-01-20T06:02:10;55.08;;;26.52;;
37131;SDS011;23035;50.032;21.978;2023-01-20T06:07:14;46.15;;;22.77;;
37131;SDS011;23035;50.032;21.978;2023-01-20T06:12:21;46.38;;;23.15;;
37131;SDS011;23035;50.032;21.978;2023-01-20T06:17:26;44.60;;;22.45;;
37131;SDS011;23035;50.032;21.978;2023-01-20T06:22:30;55.75;;;26.35;;
37131;SDS011;23035;50.032;21.978;2023-01-20T06:27:36;55.60;;;26.38;;
37131;SDS011;23035;50.032;21.978;2023-01-20T06:32:41;47.97;;;22.45;;
37131;SDS011;23035;50.032;21.978;2023-01-20T06:37:45;54.65;;;24.23;;
37131;SDS011;23035;50.032;21.978;2023-01-20T06:42:51;61.13;;;28.38;;
37131;SDS011;23035;50.032;21.978;2023-01-20T06:47:56;68.30;;;29.70;;
37131;SDS011;23035;50.032;21.978;2023-01-20T06:53:01;56.70;;;25.60;;
37131;SDS011;23035;50.032;21.978;2023-01-20T06:58:06;48.38;;;23.08;;
37131;SDS011;23035;50.032;21.978;2023-01-20T07:03:11;51.33;;;24.50;;
37131;SDS011;23035;50.032;21.978;2023-01-20T07:08:15;55.10;;;25.23;;
37131;SDS011;23035;50.032;21.978;2023-01-20T07:13:21;43.42;;;21.00;;
37131;SDS011;23035;50.032;21.978;2023-01-20T07:18:26;53.35;;;25.42;;
37131;SDS011;23035;50.032;21.978;2023-01-20T07:23:30;53.78;;;27.05;;
37131;SDS011;23035;50.032;21.978;2023-01-20T07:28:37;45.40;;;22.95;;
37131;SDS011;23035;50.032;21.978;2023-01-20T07:33:42;48.42;;;24.40;;
37131;SDS011;23035;50.032;21.978;2023-01-20T07:38:47;49.73;;;26.90;;
37131;SDS011;23035;50.032;21.978;2023-01-20T07:43:54;42.47;;;21.85;;
37131;SDS011;23035;50.032;21.978;2023-01-20T07:48:59;50.58;;;25.10;;
37131;SDS011;23035;50.032;21.978;2023-01-20T07:54:04;42.20;;;22.42;;
37131;SDS011;23035;50.032;21.978;2023-01-20T07:59:10;42.70;;;24.02;;
37131;SDS011;23035;50.032;21.978;2023-01-20T08:04:14;40.95;;;22.10;;
37131;SDS011;23035;50.032;21.978;2023-01-20T08:09:19;32.88;;;18.83;;
37131;SDS011;23035;50.032;21.978;2023-01-20T08:14:25;38.38;;;19.90;;
37131;SDS011;23035;50.032;21.978;2023-01-20T08:19:30;26.73;;;16.45;;
37131;SDS011;23035;50.032;21.978;2023-01-20T08:24:34;26.23;;;12.88;;
37131;SDS011;23035;50.032;21.978;2023-01-20T08:29:40;25.45;;;13.73;;
37131;SDS011;23035;50.032;21.978;2023-01-20T08:34:45;32.65;;;17.17;;
37131;SDS011;23035;50.032;21.978;2023-01-20T08:39:49;34.95;;;17.65;;
37131;SDS011;23035;50.032;21.978;2023-01-20T08:44:55;38.83;;;20.55;;
37131;SDS011;23035;50.032;21.978;2023-01-20T08:50:00;40.78;;;19.60;;
37131;SDS011;23035;50.032;21.978;2023-01-20T08:55:05;29.90;;;15.48;;
37131;SDS011;23035;50.032;21.978;2023-01-20T09:00:12;29.55;;;15.38;;
37131;SDS011;23035;50.032;21.978;2023-01-20T09:05:20;27.17;;;14.82;;
37131;SDS011;23035;50.032;21.978;2023-01-20T09:10:25;22.45;;;13.32;;
37131;SDS011;23035;50.032;21.978;2023-01-20T09:15:31;31.42;;;15.30;;
37131;SDS011;23035;50.032;21.978;2023-01-20T09:20:36;23.85;;;13.68;;
37131;SDS011;23035;50.032;21.978;2023-01-20T09:25:40;21.15;;;11.32;;
37131;SDS011;23035;50.032;21.978;2023-01-20T09:30:47;19.23;;;9.90;;
37131;SDS011;23035;50.032;21.978;2023-01-20T09:35:53;19.60;;;10.25;;
37131;SDS011;23035;50.032;21.978;2023-01-20T09:41:02;26.85;;;14.50;;
37131;SDS011;23035;50.032;21.978;2023-01-20T09:46:41;22.67;;;12.13;;
37131;SDS011;23035;50.032;21.978;2023-01-20T09:52:17;21.55;;;13.77;;
37131;SDS011;23035;50.032;21.978;2023-01-20T09:57:47;20.17;;;10.43;;
37131;SDS011;23035;50.032;21.978;2023-01-20T10:03:03;23.42;;;12.18;;
37131;SDS011;23035;50.032;21.978;2023-01-20T10:08:16;23.58;;;12.68;;
37131;SDS011;23035;50.032;21.978;2023-01-20T10:13:24;21.77;;;11.75;;
37131;SDS011;23035;50.032;21.978;2023-01-20T10:18:36;25.83;;;12.57;;
37131;SDS011;23035;50.032;21.978;2023-01-20T10:23:48;19.25;;;11.05;;
37131;SDS011;23035;50.032;21.978;2023-01-20T10:28:58;27.00;;;14.13;;
37131;SDS011;23035;50.032;21.978;2023-01-20T10:34:07;19.40;;;11.27;;
37131;SDS011;23035;50.032;21.978;2023-01-20T10:39:18;19.75;;;10.88;;
37131;SDS011;23035;50.032;21.978;2023-01-20T10:44:29;19.65;;;10.43;;
37131;SDS011;23035;50.032;21.978;2023-01-20T10:49:42;20.35;;;10.90;;
37131;SDS011;23035;50.032;21.978;2023-01-20T10:55:00;19.98;;;10.07;;
37131;SDS011;23035;50.032;21.978;2023-01-20T11:00:19;18.17;;;9.00;;
37131;SDS011;23035;50.032;21.978;2023-01-20T11:05:29;21.95;;;11.95;;
37131;SDS011;23035;50.032;21.978;2023-01-20T11:10:38;18.02;;;9.52;;
37131;SDS011;23035;50.032;21.978;2023-01-20T11:15:44;16.38;;;10.27;;
37131;SDS011;23035;50.032;21.978;2023-01-20T11:20:53;16.70;;;10.95;;
37131;SDS011;23035;50.032;21.978;2023-01-20T11:26:00;17.92;;;10.40;;
37131;SDS011;23035;50.032;21.978;2023-01-20T11:31:11;22.30;;;12.07;;
37131;SDS011;23035;50.032;21.978;2023-01-20T11:36:18;23.02;;;13.52;;
37131;SDS011;23035;50.032;21.978;2023-01-20T11:41:26;18.60;;;12.15;;
37131;SDS011;23035;50.032;21.978;2023-01-20T11:46:31;24.50;;;12.23;;
37131;SDS011;23035;50.032;21.978;2023-01-20T11:51:44;22.38;;;11.98;;
37131;SDS011;23035;50.032;21.978;2023-01-20T11:56:52;22.23;;;13.23;;
37131;SDS011;23035;50.032;21.978;2023-01-20T12:02:00;23.08;;;12.30;;
37131;SDS011;23035;50.032;21.978;2023-01-20T12:07:27;23.35;;;14.15;;
37131;SDS011;23035;50.032;21.978;2023-01-20T12:12:38;24.33;;;14.20;;
37131;SDS011;23035;50.032;21.978;2023-01-20T12:17:50;24.80;;;13.75;;
37131;SDS011;23035;50.032;21.978;2023-01-20T12:23:11;20.20;;;12.50;;
37131;SDS011;23035;50.032;21.978;2023-01-20T12:28:24;17.45;;;10.82;;
37131;SDS011;23035;50.032;21.978;2023-01-20T12:33:34;18.92;;;11.38;;
37131;SDS011;23035;50.032;21.978;2023-01-20T12:38:45;19.33;;;11.57;;
37131;SDS011;23035;50.032;21.978;2023-01-20T12:44:07;19.88;;;11.43;;
37131;SDS011;23035;50.032;21.978;2023-01-20T12:49:32;20.08;;;10.98;;
37131;SDS011;23035;50.032;21.978;2023-01-20T12:54:52;24.33;;;13.05;;
37131;SDS011;23035;50.032;21.978;2023-01-20T13:00:18;20.63;;;12.35;;
37131;SDS011;23035;50.032;21.978;2023-01-20T13:05:44;29.38;;;14.82;;
37131;SDS011;23035;50.032;21.978;2023-01-20T13:11:29;32.83;;;16.55;;
37131;SDS011;23035;50.032;21.978;2023-01-20T13:16:49;32.63;;;15.93;;
37131;SDS011;23035;50.032;21.978;2023-01-20T13:22:07;30.95;;;15.95;;
37131;SDS011;23035;50.032;21.978;2023-01-20T13:27:16;31.02;;;15.30;;
37131;SDS011;23035;50.032;21.978;2023-01-20T13:32:29;32.72;;;16.98;;
37131;SDS011;23035;50.032;21.978;2023-01-20T13:37:36;33.33;;;15.75;;
37131;SDS011;23035;50.032;21.978;2023-01-20T13:42:49;28.85;;;14.13;;
37131;SDS011;23035;50.032;21.978;2023-01-20T13:47:55;39.53;;;17.88;;
37131;SDS011;23035;50.032;21.978;2023-01-20T13:53:23;42.03;;;19.50;;
37131;SDS011;23035;50.032;21.978;2023-01-20T13:58:46;41.13;;;18.23;;
37131;SDS011;23035;50.032;21.978;2023-01-20T14:04:01;37.35;;;17.95;;
37131;SDS011;23035;50.032;21.978;2023-01-20T14:09:08;36.30;;;18.17;;
37131;SDS011;23035;50.032;21.978;2023-01-20T14:14:22;41.15;;;17.65;;
37131;SDS011;23035;50.032;21.978;2023-01-20T14:19:29;37.20;;;16.65;;
37131;SDS011;23035;50.032;21.978;2023-01-20T14:24:35;34.38;;;15.98;;
37131;SDS011;23035;50.032;21.978;2023-01-20T14:29:47;39.38;;;19.38;;
37131;SDS011;23035;50.032;21.978;2023-01-20T14:34:53;36.47;;;17.20;;
37131;SDS011;23035;50.032;21.978;2023-01-20T14:39:59;36.97;;;15.80;;
37131;SDS011;23035;50.032;21.978;2023-01-20T14:45:18;35.55;;;17.10;;
37131;SDS011;23035;50.032;21.978;2023-01-20T14:50:25;40.30;;;18.85;;
37131;SDS011;23035;50.032;21.978;2023-01-20T14:55:31;39.30;;;18.27;;
37131;SDS011;23035;50.032;21.978;2023-01-20T15:00:40;37.65;;;17.60;;
37131;SDS011;23035;50.032;21.978;2023-01-20T15:05:51;37.35;;;16.52;;
37131;SDS011;23035;50.032;21.978;2023-01-20T15:11:09;43.22;;;20.08;;
37131;SDS011;23035;50.032;21.978;2023-01-20T15:16:25;28.92;;;13.77;;
37131;SDS011;23035;50.032;21.978;2023-01-20T15:21:31;29.55;;;13.57;;
37131;SDS011;23035;50.032;21.978;2023-01-20T15:26:38;27.02;;;12.68;;
37131;SDS011;23035;50.032;21.978;2023-01-20T15:31:44;23.02;;;11.13;;
37131;SDS011;23035;50.032;21.978;2023-01-20T15:36:49;27.83;;;14.30;;
37131;SDS011;23035;50.032;21.978;2023-01-20T15:41:55;30.38;;;14.50;;
37131;SDS011;23035;50.032;21.978;2023-01-20T15:47:18;28.75;;;15.07;;
37131;SDS011;23035;50.032;21.978;2023-01-20T15:52:27;24.05;;;13.05;;
37131;SDS011;23035;50.032;21.978;2023-01-20T15:57:31;23.73;;;13.30;;
37131;SDS011;23035;50.032;21.978;2023-01-20T16:02:39;23.42;;;11.85;;
37131;SDS011;23035;50.032;21.978;2023-01-20T16:07:45;28.52;;;15.35;;
37131;SDS011;23035;50.032;21.978;2023-01-20T16:12:51;31.52;;;18.08;;
37131;SDS011;23035;50.032;21.978;2023-01-20T16:17:57;31.25;;;14.13;;
37131;SDS011;23035;50.032;21.978;2023-01-20T16:23:01;31.25;;;14.60;;
37131;SDS011;23035;50.032;21.978;2023-01-20T16:28:12;28.00;;;15.00;;
37131;SDS011;23035;50.032;21.978;2023-01-20T16:33:22;25.80;;;13.07;;
37131;SDS011;23035;50.032;21.978;2023-01-20T16:38:27;22.25;;;11.65;;
37131;SDS011;23035;50.032;21.978;2023-01-20T16:43:32;23.25;;;12.50;;
37131;SDS011;23035;50.032;21.978;2023-01-20T16:48:39;23.92;;;13.05;;
37131;SDS011;23035;50.032;21.978;2023-01-20T16:53:43;26.58;;;13.60;;
37131;SDS011;23035;50.032;21.978;2023-01-20T16:58:48;25.97;;;12.33;;
37131;SDS011;23035;50.032;21.978;2023-01-20T17:03:56;21.48;;;10.75;;
37131;SDS011;23035;50.032;21.978;2023-01-20T17:09:03;19.45;;;9.52;;
37131;SDS011;23035;50.032;21.978;2023-01-20T17:14:09;27.92;;;12.23;;
37131;SDS011;23035;50.032;21.978;2023-01-20T17:19:15;19.58;;;10.00;;
37131;SDS011;23035;50.032;21.978;2023-01-20T17:24:20;25.17;;;12.73;;
37131;SDS011;23035;50.032;21.978;2023-01-20T17:29:24;22.85;;;12.05;;
37131;SDS011;23035;50.032;21.978;2023-01-20T17:34:30;22.77;;;11.45;;
37131;SDS011;23035;50.032;21.978;2023-01-20T17:39:35;18.77;;;10.38;;
37131;SDS011;23035;50.032;21.978;2023-01-20T17:44:39;17.73;;;9.52;;
37131;SDS011;23035;50.032;21.978;2023-01-20T17:49:45;17.38;;;10.38;;
37131;SDS011;23035;50.032;21.978;2023-01-20T17:54:50;15.32;;;9.10;;
37131;SDS011;23035;50.032;21.978;2023-01-20T17:59:55;16.33;;;9.43;;
37131;SDS011;23035;50.032;21.978;2023-01-20T18:05:00;18.17;;;8.77;;
37131;SDS011;23035;50.032;21.978;2023-01-20T18:10:05;14.77;;;8.82;;
37131;SDS011;23035;50.032;21.978;2023-01-20T18:15:10;14.33;;;9.47;;
37131;SDS011;23035;50.032;21.978;2023-01-20T18:20:16;16.90;;;8.20;;
37131;SDS011;23035;50.032;21.978;2023-01-20T18:25:21;12.20;;;7.80;;
37131;SDS011;23035;50.032;21.978;2023-01-20T18:30:25;15.60;;;7.97;;
37131;SDS011;23035;50.032;21.978;2023-01-20T18:35:31;14.43;;;8.43;;
37131;SDS011;23035;50.032;21.978;2023-01-20T18:45:40;18.58;;;10.07;;
37131;SDS011;23035;50.032;21.978;2023-01-20T18:50:45;15.90;;;7.63;;
37131;SDS011;23035;50.032;21.978;2023-01-20T18:55:50;22.90;;;9.43;;
37131;SDS011;23035;50.032;21.978;2023-01-20T19:01:00;13.52;;;7.72;;
37131;SDS011;23035;50.032;21.978;2023-01-20T19:06:07;13.95;;;7.82;;
37131;SDS011;23035;50.032;21.978;2023-01-20T19:11:13;12.68;;;7.75;;
37131;SDS011;23035;50.032;21.978;2023-01-20T19:16:20;11.93;;;7.93;;
37131;SDS011;23035;50.032;21.978;2023-01-20T19:21:27;12.00;;;7.38;;
37131;SDS011;23035;50.032;21.978;2023-01-20T19:26:35;11.77;;;7.32;;
37131;SDS011;23035;50.032;21.978;2023-01-20T19:31:40;12.57;;;8.25;;
37131;SDS011;23035;50.032;21.978;2023-01-20T19:36:46;14.23;;;7.87;;
37131;SDS011;23035;50.032;21.978;2023-01-20T19:41:51;14.70;;;7.78;;
37131;SDS011;23035;50.032;21.978;2023-01-20T19:46:55;14.45;;;8.40;;
37131;SDS011;23035;50.032;21.978;2023-01-20T19:52:07;10.80;;;7.13;;
37131;SDS011;23035;50.032;21.978;2023-01-20T19:57:11;13.25;;;7.95;;
37131;SDS011;23035;50.032;21.978;2023-01-20T20:02:16;11.25;;;6.82;;
37131;SDS011;23035;50.032;21.978;2023-01-20T20:07:22;9.77;;;6.27;;
37131;SDS011;23035;50.032;21.978;2023-01-20T20:12:26;9.90;;;6.25;;
37131;SDS011;23035;50.032;21.978;2023-01-20T20:17:31;10.10;;;6.28;;
37131;SDS011;23035;50.032;21.978;2023-01-20T20:22:37;11.27;;;6.97;;
37131;SDS011;23035;50.032;21.978;2023-01-20T20:27:41;7.60;;;5.45;;
37131;SDS011;23035;50.032;21.978;2023-01-20T20:32:46;8.63;;;5.60;;
37131;SDS011;23035;50.032;21.978;2023-01-20T20:37:52;7.90;;;4.93;;
37131;SDS011;23035;50.032;21.978;2023-01-20T20:42:57;8.15;;;5.57;;
37131;SDS011;23035;50.032;21.978;2023-01-20T20:48:01;8.25;;;5.57;;
37131;SDS011;23035;50.032;21.978;2023-01-20T20:53:07;7.83;;;5.03;;
37131;SDS011;23035;50.032;21.978;2023-01-20T20:58:12;8.98;;;5.15;;
37131;SDS011;23035;50.032;21.978;2023-01-20T21:03:17;10.27;;;4.88;;
37131;SDS011;23035;50.032;21.978;2023-01-20T21:08:24;7.73;;;4.63;;
37131;SDS011;23035;50.032;21.978;2023-01-20T21:13:29;7.82;;;4.63;;
37131;SDS011;23035;50.032;21.978;2023-01-20T21:18:34;5.35;;;4.07;;
37131;SDS011;23035;50.032;21.978;2023-01-20T21:23:40;6.32;;;4.40;;
37131;SDS011;23035;50.032;21.978;2023-01-20T21:28:45;5.07;;;3.60;;
37131;SDS011;23035;50.032;21.978;2023-01-20T21:33:51;6.97;;;4.28;;
37131;SDS011;23035;50.032;21.978;2023-01-20T21:38:58;5.63;;;4.10;;
37131;SDS011;23035;50.032;21.978;2023-01-20T21:44:07;6.00;;;4.07;;
37131;SDS011;23035;50.032;21.978;2023-01-20T21:49:31;5.45;;;3.55;;
37131;SDS011;23035;50.032;21.978;2023-01-20T21:55:09;5.82;;;4.35;;
37131;SDS011;23035;50.032;21.978;2023-01-20T22:00:17;5.55;;;3.88;;
37131;SDS011;23035;50.032;21.978;2023-01-20T22:05:22;4.38;;;3.47;;
37131;SDS011;23035;50.032;21.978;2023-01-20T22:10:28;4.43;;;3.10;;
37131;SDS011;23035;50.032;21.978;2023-01-20T22:15:34;5.00;;;3.63;;
37131;SDS011;23035;50.032;21.978;2023-01-20T22:20:41;6.28;;;3.50;;
37131;SDS011;23035;50.032;21.978;2023-01-20T22:25:47;4.88;;;2.90;;
37131;SDS011;23035;50.032;21.978;2023-01-20T22:30:55;3.67;;;2.90;;
37131;SDS011;23035;50.032;21.978;2023-01-20T22:36:07;3.42;;;2.67;;
37131;SDS011;23035;50.032;21.978;2023-01-20T22:43:08;4.93;;;3.58;;
37131;SDS011;23035;50.032;21.978;2023-01-20T22:53:17;4.30;;;3.22;;
37131;SDS011;23035;50.032;21.978;2023-01-20T22:58:22;5.75;;;3.47;;
37131;SDS011;23035;50.032;21.978;2023-01-20T23:08:31;6.30;;;3.63;;
37131;SDS011;23035;50.032;21.978;2023-01-20T23:13:37;7.35;;;4.10;;
37131;SDS011;23035;50.032;21.978;2023-01-20T23:18:42;7.05;;;3.92;;
37131;SDS011;23035;50.032;21.978;2023-01-20T23:23:46;11.32;;;5.07;;
37131;SDS011;23035;50.032;21.978;2023-01-20T23:28:58;8.48;;;4.00;;
37131;SDS011;23035;50.032;21.978;2023-01-20T23:34:02;8.90;;;4.70;;
37131;SDS011;23035;50.032;21.978;2023-01-20T23:39:07;9.40;;;4.22;;
37131;SDS011;23035;50.032;21.978;2023-01-20T23:44:14;7.10;;;3.85;;
37131;SDS011;23035;50.032;21.978;2023-01-20T23:49:18;10.43;;;4.07;;
37131;SDS011;23035;50.032;21.978;2023-01-20T23:54:24;8.18;;;3.60;;
37131;SDS011;23035;50.032;21.978;2023-01-20T23:59:30;10.02;;;3.92;;
